Terminal Aerodrome Forecast
Issued by NWS Northern Indiana

Home | Current Version | Previous Version | Graphics & Text | Print | Product List | Glossary On
Versions: 1 2 3 4 5 6 7 8 9 10 11 12 13
000
FTUS43 KIWX 040500
TAFFWA
TAF
KFWA 040537Z 0406/0506 28012KT P6SM BKN015
     FM040800 29010KT P6SM SCT015 BKN025
     FM041100 30010KT P6SM BKN020
     FM041600 30012G18KT P6SM BKN025=

USA.gov is the U.S. government's official web portal to all federal, state and local government web resources and services.